sensor_id;sensor_type;location;lat;lon;timestamp;pressure;altitude;pressure_sealevel;temperature;humidity
54666;BME280;40566;50.006;36.180;2023-03-21T00:00:34;99750.53;;;2.26;63.38
54666;BME280;40566;50.006;36.180;2023-03-21T00:05:44;99741.13;;;2.18;63.58
54666;BME280;40566;50.006;36.180;2023-03-21T00:10:58;99739.41;;;2.11;63.59
54666;BME280;40566;50.006;36.180;2023-03-21T00:16:26;99734.22;;;2.01;63.70
54666;BME280;40566;50.006;36.180;2023-03-21T00:21:26;99739.34;;;2.02;63.55
54666;BME280;40566;50.006;36.180;2023-03-21T00:26:32;99729.09;;;1.99;63.71
54666;BME280;40566;50.006;36.180;2023-03-21T00:31:33;99731.63;;;1.94;63.74
54666;BME280;40566;50.006;36.180;2023-03-21T00:36:33;99730.75;;;1.92;63.95
54666;BME280;40566;50.006;36.180;2023-03-21T00:41:34;99722.25;;;1.90;63.90
54666;BME280;40566;50.006;36.180;2023-03-21T00:46:35;99738.44;;;1.98;63.80
54666;BME280;40566;50.006;36.180;2023-03-21T00:51:35;99726.56;;;2.02;63.68
54666;BME280;40566;50.006;36.180;2023-03-21T00:56:36;99726.56;;;2.05;63.63
54666;BME280;40566;50.006;36.180;2023-03-21T01:01:36;99721.50;;;2.04;63.71
54666;BME280;40566;50.006;36.180;2023-03-21T01:06:37;99721.44;;;1.99;64.09
54666;BME280;40566;50.006;36.180;2023-03-21T01:11:41;99726.59;;;2.07;63.83
54666;BME280;40566;50.006;36.180;2023-03-21T01:16:42;99729.19;;;2.11;63.71
54666;BME280;40566;50.006;36.180;2023-03-21T01:21:42;99734.28;;;2.13;63.79
54666;BME280;40566;50.006;36.180;2023-03-21T01:26:43;99734.28;;;2.13;64.17
54666;BME280;40566;50.006;36.180;2023-03-21T01:31:44;99731.75;;;2.16;63.93
54666;BME280;40566;50.006;36.180;2023-03-21T01:36:44;99737.72;;;2.18;63.97
54666;BME280;40566;50.006;36.180;2023-03-21T01:41:45;99733.47;;;2.23;63.87
54666;BME280;40566;50.006;36.180;2023-03-21T01:46:48;99723.22;;;2.11;64.30
54666;BME280;40566;50.006;36.180;2023-03-21T01:51:59;99720.69;;;2.14;64.27
54666;BME280;40566;50.006;36.180;2023-03-21T01:57:05;99733.47;;;2.15;64.16
54666;BME280;40566;50.006;36.180;2023-03-21T02:02:12;99718.97;;;2.13;64.27
54666;BME280;40566;50.006;36.180;2023-03-21T02:07:17;99719.88;;;2.18;64.21
54666;BME280;40566;50.006;36.180;2023-03-21T02:12:22;99714.75;;;2.16;64.21
54666;BME280;40566;50.006;36.180;2023-03-21T02:28:52;99712.19;;;2.13;64.40
54666;BME280;40566;50.006;36.180;2023-03-21T02:49:41;99708.88;;;2.31;64.13
54666;BME280;40566;50.006;36.180;2023-03-21T02:54:46;99701.25;;;2.37;64.04
54666;BME280;40566;50.006;36.180;2023-03-21T02:59:49;99702.13;;;2.41;64.07
54666;BME280;40566;50.006;36.180;2023-03-21T03:04:50;99702.13;;;2.43;64.21
54666;BME280;40566;50.006;36.180;2023-03-21T03:10:02;99703.84;;;2.44;64.45
54666;BME280;40566;50.006;36.180;2023-03-21T03:20:29;99705.56;;;2.51;64.56
54666;BME280;40566;50.006;36.180;2023-03-21T03:25:40;99702.16;;;2.56;64.40
54666;BME280;40566;50.006;36.180;2023-03-21T03:30:43;99697.94;;;2.62;64.33
54666;BME280;40566;50.006;36.180;2023-03-21T03:35:45;99698.78;;;2.62;64.48
54666;BME280;40566;50.006;36.180;2023-03-21T03:40:50;99708.16;;;2.66;64.71
54666;BME280;40566;50.006;36.180;2023-03-21T03:45:59;99702.22;;;2.63;64.72
54666;BME280;40566;50.006;36.180;2023-03-21T03:51:09;99698.78;;;2.59;64.90
54666;BME280;40566;50.006;36.180;2023-03-21T03:56:14;99703.06;;;2.68;64.96
54666;BME280;40566;50.006;36.180;2023-03-21T04:01:14;99702.28;;;2.76;64.58
54666;BME280;40566;50.006;36.180;2023-03-21T04:06:16;99705.66;;;2.82;64.55
54666;BME280;40566;50.006;36.180;2023-03-21T04:11:16;99702.28;;;2.86;64.72
54666;BME280;40566;50.006;36.180;2023-03-21T04:16:17;99706.56;;;2.94;64.48
54666;BME280;40566;50.006;36.180;2023-03-21T04:21:18;99706.59;;;3.02;64.66
54666;BME280;40566;50.006;36.180;2023-03-21T04:26:21;99705.75;;;3.06;64.54
54666;BME280;40566;50.006;36.180;2023-03-21T04:31:22;99705.75;;;3.17;64.37
54666;BME280;40566;50.006;36.180;2023-03-21T04:36:27;99704.91;;;3.26;64.62
54666;BME280;40566;50.006;36.180;2023-03-21T04:41:42;99704.06;;;3.30;64.34
54666;BME280;40566;50.006;36.180;2023-03-21T04:46:43;99700.66;;;3.38;64.37
54666;BME280;40566;50.006;36.180;2023-03-21T04:51:44;99707.50;;;3.46;64.49
54666;BME280;40566;50.006;36.180;2023-03-21T04:56:45;99698.09;;;3.51;64.30
54666;BME280;40566;50.006;36.180;2023-03-21T05:01:45;99708.34;;;3.55;64.45
54666;BME280;40566;50.006;36.180;2023-03-21T05:06:46;99710.03;;;3.63;64.45
54666;BME280;40566;50.006;36.180;2023-03-21T05:11:48;99704.94;;;3.64;64.59
54666;BME280;40566;50.006;36.180;2023-03-21T05:16:49;99702.34;;;3.69;64.62
54666;BME280;40566;50.006;36.180;2023-03-21T05:21:52;99709.19;;;3.85;64.43
54666;BME280;40566;50.006;36.180;2023-03-21T05:26:53;99712.56;;;3.98;64.30
54666;BME280;40566;50.006;36.180;2023-03-21T05:31:56;99706.56;;;4.07;64.28
54666;BME280;40566;50.006;36.180;2023-03-21T05:36:56;99711.66;;;4.22;64.20
54666;BME280;40566;50.006;36.180;2023-03-21T05:41:57;99708.22;;;4.32;64.11
54666;BME280;40566;50.006;36.180;2023-03-21T05:46:58;99713.28;;;4.48;64.01
54666;BME280;40566;50.006;36.180;2023-03-21T05:51:58;99713.28;;;4.51;64.00
54666;BME280;40566;50.006;36.180;2023-03-21T05:56:59;99718.38;;;4.55;64.18
54666;BME280;40566;50.006;36.180;2023-03-21T06:02:00;99723.44;;;4.68;64.02
54666;BME280;40566;50.006;36.180;2023-03-21T06:07:00;99715.69;;;4.86;64.04
54666;BME280;40566;50.006;36.180;2023-03-21T06:12:01;99717.38;;;4.90;63.91
54666;BME280;40566;50.006;36.180;2023-03-21T06:17:02;99713.81;;;5.13;63.81
54666;BME280;40566;50.006;36.180;2023-03-21T06:22:02;99715.44;;;5.28;63.84
54666;BME280;40566;50.006;36.180;2023-03-21T06:27:03;99713.72;;;5.30;63.96
54666;BME280;40566;50.006;36.180;2023-03-21T06:32:04;99697.50;;;5.26;64.46
54666;BME280;40566;50.006;36.180;2023-03-21T06:37:07;99706.81;;;5.41;64.03
54666;BME280;40566;50.006;36.180;2023-03-21T06:42:08;99709.19;;;5.63;63.87
54666;BME280;40566;50.006;36.180;2023-03-21T06:47:09;99697.25;;;5.59;64.18
54666;BME280;40566;50.006;36.180;2023-03-21T06:52:10;99703.16;;;5.71;63.99
54666;BME280;40566;50.006;36.180;2023-03-21T06:57:10;99704.69;;;5.92;63.75
54666;BME280;40566;50.006;36.180;2023-03-21T07:02:12;99710.53;;;6.08;63.61
54666;BME280;40566;50.006;36.180;2023-03-21T07:07:13;99698.34;;;6.27;63.20
54666;BME280;40566;50.006;36.180;2023-03-21T07:12:14;99696.50;;;6.39;63.16
54666;BME280;40566;50.006;36.180;2023-03-21T07:17:15;99703.91;;;6.63;62.77
54666;BME280;40566;50.006;36.180;2023-03-21T07:22:15;99697.84;;;6.67;62.99
54666;BME280;40566;50.006;36.180;2023-03-21T07:27:17;99708.03;;;6.77;62.96
54666;BME280;40566;50.006;36.180;2023-03-21T07:32:19;99714.81;;;6.84;62.87
54666;BME280;40566;50.006;36.180;2023-03-21T07:37:20;99715.63;;;6.86;63.00
54666;BME280;40566;50.006;36.180;2023-03-21T07:42:20;99714.00;;;6.80;63.31
54666;BME280;40566;50.006;36.180;2023-03-21T07:47:21;99714.00;;;6.80;63.32
54666;BME280;40566;50.006;36.180;2023-03-21T07:52:22;99713.00;;;6.89;63.39
54666;BME280;40566;50.006;36.180;2023-03-21T07:57:22;99704.13;;;7.13;62.72
54666;BME280;40566;50.006;36.180;2023-03-21T08:02:23;99706.19;;;7.45;62.07
54666;BME280;40566;50.006;36.180;2023-03-21T08:07:24;99706.69;;;7.69;61.45
54666;BME280;40566;50.006;36.180;2023-03-21T08:12:26;99712.88;;;8.07;60.83
54666;BME280;40566;50.006;36.180;2023-03-21T08:17:27;99708.72;;;8.00;61.29
54666;BME280;40566;50.006;36.180;2023-03-21T08:22:27;99704.59;;;8.38;60.68
54666;BME280;40566;50.006;36.180;2023-03-21T08:27:28;99704.06;;;8.65;60.20
54666;BME280;40566;50.006;36.180;2023-03-21T08:32:28;99699.22;;;8.90;59.65
54666;BME280;40566;50.006;36.180;2023-03-21T08:37:30;99690.16;;;9.11;59.22
54666;BME280;40566;50.006;36.180;2023-03-21T08:42:30;99702.31;;;9.44;58.63
54666;BME280;40566;50.006;36.180;2023-03-21T08:47:31;99691.56;;;9.62;58.64
54666;BME280;40566;50.006;36.180;2023-03-21T08:52:32;99684.59;;;9.64;58.58
54666;BME280;40566;50.006;36.180;2023-03-21T08:57:33;99690.97;;;9.85;58.40
54666;BME280;40566;50.006;36.180;2023-03-21T09:02:33;99688.06;;;9.98;58.10
54666;BME280;40566;50.006;36.180;2023-03-21T09:07:34;99678.88;;;10.19;57.63
54666;BME280;40566;50.006;36.180;2023-03-21T09:12:35;99674.13;;;9.70;58.77
54666;BME280;40566;50.006;36.180;2023-03-21T09:17:37;99681.38;;;9.89;57.74
54666;BME280;40566;50.006;36.180;2023-03-21T09:22:41;99669.47;;;9.83;58.01
54666;BME280;40566;50.006;36.180;2023-03-21T09:27:42;99671.50;;;9.72;58.23
54666;BME280;40566;50.006;36.180;2023-03-21T09:32:45;99678.50;;;10.01;57.54
54666;BME280;40566;50.006;36.180;2023-03-21T09:37:49;99682.44;;;9.82;57.57
54666;BME280;40566;50.006;36.180;2023-03-21T09:43:00;99670.84;;;9.97;56.70
54666;BME280;40566;50.006;36.180;2023-03-21T09:53:36;99664.53;;;10.40;55.55
54666;BME280;40566;50.006;36.180;2023-03-21T09:58:45;99665.78;;;9.93;56.38
54666;BME280;40566;50.006;36.180;2023-03-21T10:03:53;99670.22;;;9.88;56.42
54666;BME280;40566;50.006;36.180;2023-03-21T10:09:03;99657.34;;;10.18;55.71
54666;BME280;40566;50.006;36.180;2023-03-21T10:14:34;99653.25;;;10.42;54.87
54666;BME280;40566;50.006;36.180;2023-03-21T10:19:32;99667.50;;;10.57;54.30
54666;BME280;40566;50.006;36.180;2023-03-21T10:24:33;99656.00;;;10.38;54.62
54666;BME280;40566;50.006;36.180;2023-03-21T10:29:52;99641.50;;;10.32;54.89
54666;BME280;40566;50.006;36.180;2023-03-21T10:34:54;99629.94;;;10.44;54.63
54666;BME280;40566;50.006;36.180;2023-03-21T10:40:05;99638.53;;;10.44;54.51
54666;BME280;40566;50.006;36.180;2023-03-21T10:45:16;99626.44;;;11.03;53.29
54666;BME280;40566;50.006;36.180;2023-03-21T10:50:19;99621.72;;;11.42;52.58
54666;BME280;40566;50.006;36.180;2023-03-21T10:55:27;99620.69;;;11.73;51.53
54666;BME280;40566;50.006;36.180;2023-03-21T11:00:33;99610.00;;;11.57;52.10
54666;BME280;40566;50.006;36.180;2023-03-21T11:05:40;99609.78;;;12.59;49.71
54666;BME280;40566;50.006;36.180;2023-03-21T11:10:54;99608.78;;;13.50;47.80
54666;BME280;40566;50.006;36.180;2023-03-21T11:16:22;99606.72;;;13.16;48.98
54666;BME280;40566;50.006;36.180;2023-03-21T11:21:23;99610.34;;;12.67;49.89
54666;BME280;40566;50.006;36.180;2023-03-21T11:26:30;99597.53;;;12.41;50.45
54666;BME280;40566;50.006;36.180;2023-03-21T11:31:38;99605.41;;;12.14;50.73
54666;BME280;40566;50.006;36.180;2023-03-21T11:36:41;99610.09;;;11.79;51.61
54666;BME280;40566;50.006;36.180;2023-03-21T11:41:41;99604.44;;;11.43;52.04
54666;BME280;40566;50.006;36.180;2023-03-21T11:46:42;99620.63;;;11.23;52.33
54666;BME280;40566;50.006;36.180;2023-03-21T12:14:04;99564.81;;;11.91;51.06
54666;BME280;40566;50.006;36.180;2023-03-21T12:24:09;99569.91;;;11.42;52.38
54666;BME280;40566;50.006;36.180;2023-03-21T12:29:31;99555.09;;;11.47;52.31
54666;BME280;40566;50.006;36.180;2023-03-21T12:35:36;99570.22;;;11.58;52.35
54666;BME280;40566;50.006;36.180;2023-03-21T12:40:15;99558.59;;;11.45;52.53
54666;BME280;40566;50.006;36.180;2023-03-21T12:45:40;99554.47;;;11.64;52.34
54666;BME280;40566;50.006;36.180;2023-03-21T12:50:43;99542.47;;;11.62;52.46
54666;BME280;40566;50.006;36.180;2023-03-21T12:55:45;99562.28;;;11.13;53.67
54666;BME280;40566;50.006;36.180;2023-03-21T13:00:46;99557.53;;;11.00;53.92
54666;BME280;40566;50.006;36.180;2023-03-21T13:05:51;99545.13;;;11.35;53.05
54666;BME280;40566;50.006;36.180;2023-03-21T13:10:53;99545.38;;;11.27;53.32
54666;BME280;40566;50.006;36.180;2023-03-21T13:26:57;99533.63;;;10.92;54.19
54666;BME280;40566;50.006;36.180;2023-03-21T13:32:09;99535.75;;;10.52;55.27
54666;BME280;40566;50.006;36.180;2023-03-21T13:37:17;99535.59;;;10.27;56.13
54666;BME280;40566;50.006;36.180;2023-03-21T13:42:22;99540.03;;;10.24;55.98
54666;BME280;40566;50.006;36.180;2023-03-21T13:47:57;99540.63;;;10.34;55.66
54666;BME280;40566;50.006;36.180;2023-03-21T13:53:17;99540.78;;;10.57;55.47
54666;BME280;40566;50.006;36.180;2023-03-21T14:03:22;99553.56;;;10.34;55.73
54666;BME280;40566;50.006;36.180;2023-03-21T14:08:25;99545.09;;;10.27;55.96
54666;BME280;40566;50.006;36.180;2023-03-21T14:13:28;99552.06;;;10.25;55.94
54666;BME280;40566;50.006;36.180;2023-03-21T14:18:29;99549.59;;;10.20;56.21
54666;BME280;40566;50.006;36.180;2023-03-21T14:23:30;99551.59;;;10.10;56.48
54666;BME280;40566;50.006;36.180;2023-03-21T14:28:30;99547.66;;;9.97;56.97
54666;BME280;40566;50.006;36.180;2023-03-21T14:33:38;99535.97;;;9.85;57.37
54666;BME280;40566;50.006;36.180;2023-03-21T14:38:40;99545.41;;;9.86;57.38
54666;BME280;40566;50.006;36.180;2023-03-21T14:43:41;99560.97;;;9.83;57.53
54666;BME280;40566;50.006;36.180;2023-03-21T14:48:42;99559.25;;;9.84;57.56
54666;BME280;40566;50.006;36.180;2023-03-21T14:53:43;99548.00;;;9.86;57.54
54666;BME280;40566;50.006;36.180;2023-03-21T14:58:45;99550.81;;;9.77;57.78
54666;BME280;40566;50.006;36.180;2023-03-21T15:03:49;99547.50;;;9.73;58.15
54666;BME280;40566;50.006;36.180;2023-03-21T15:08:55;99555.38;;;9.67;58.39
54666;BME280;40566;50.006;36.180;2023-03-21T15:13:59;99543.63;;;9.57;58.69
54666;BME280;40566;50.006;36.180;2023-03-21T15:19:01;99572.22;;;9.49;58.79
54666;BME280;40566;50.006;36.180;2023-03-21T15:24:09;99558.59;;;9.44;58.76
54666;BME280;40566;50.006;36.180;2023-03-21T15:29:15;99552.00;;;9.34;59.09
54666;BME280;40566;50.006;36.180;2023-03-21T15:34:26;99556.53;;;9.24;59.22
54666;BME280;40566;50.006;36.180;2023-03-21T15:39:28;99567.84;;;9.19;59.48
54666;BME280;40566;50.006;36.180;2023-03-21T15:44:29;99569.53;;;9.20;59.47
54666;BME280;40566;50.006;36.180;2023-03-21T15:49:32;99555.81;;;9.18;59.62
54666;BME280;40566;50.006;36.180;2023-03-21T15:54:40;99563.41;;;9.24;59.68
54666;BME280;40566;50.006;36.180;2023-03-21T15:59:41;99579.78;;;9.23;59.73
54666;BME280;40566;50.006;36.180;2023-03-21T16:05:00;99564.31;;;9.23;59.66
54666;BME280;40566;50.006;36.180;2023-03-21T16:10:02;99562.59;;;9.22;59.70
54666;BME280;40566;50.006;36.180;2023-03-21T16:15:04;99571.31;;;9.18;60.19
54666;BME280;40566;50.006;36.180;2023-03-21T16:20:20;99561.19;;;9.10;60.18
54666;BME280;40566;50.006;36.180;2023-03-21T16:25:22;99583.72;;;9.03;60.59
54666;BME280;40566;50.006;36.180;2023-03-21T16:30:23;99594.25;;;8.92;60.92
54666;BME280;40566;50.006;36.180;2023-03-21T16:35:23;99597.81;;;8.88;61.08
54666;BME280;40566;50.006;36.180;2023-03-21T16:40:31;99584.09;;;8.86;61.30
54666;BME280;40566;50.006;36.180;2023-03-21T16:45:32;99602.28;;;8.80;61.61
54666;BME280;40566;50.006;36.180;2023-03-21T16:50:35;99600.66;;;8.78;61.80
54666;BME280;40566;50.006;36.180;2023-03-21T16:55:39;99616.22;;;8.73;61.96
54666;BME280;40566;50.006;36.180;2023-03-21T17:00:39;99619.84;;;8.64;62.16
54666;BME280;40566;50.006;36.180;2023-03-21T17:05:40;99622.50;;;8.61;62.22
54666;BME280;40566;50.006;36.180;2023-03-21T17:10:42;99616.75;;;8.48;62.53
54666;BME280;40566;50.006;36.180;2023-03-21T17:15:42;99617.13;;;8.30;62.54
54666;BME280;40566;50.006;36.180;2023-03-21T17:20:43;99630.16;;;8.22;62.99
54666;BME280;40566;50.006;36.180;2023-03-21T17:25:43;99632.03;;;8.14;63.16
54666;BME280;40566;50.006;36.180;2023-03-21T17:30:44;99629.75;;;7.99;63.47
54666;BME280;40566;50.006;36.180;2023-03-21T17:35:45;99630.84;;;7.87;63.78
54666;BME280;40566;50.006;36.180;2023-03-21T17:40:46;99629.47;;;7.67;64.10
54666;BME280;40566;50.006;36.180;2023-03-21T17:45:47;99636.59;;;7.51;64.51
54666;BME280;40566;50.006;36.180;2023-03-21T17:50:47;99633.41;;;7.39;64.64
54666;BME280;40566;50.006;36.180;2023-03-21T17:55:48;99646.34;;;7.32;64.64
54666;BME280;40566;50.006;36.180;2023-03-21T18:00:49;99639.66;;;7.22;64.86
54666;BME280;40566;50.006;36.180;2023-03-21T18:05:49;99647.47;;;7.18;64.89
54666;BME280;40566;50.006;36.180;2023-03-21T18:10:50;99638.31;;;7.00;65.08
54666;BME280;40566;50.006;36.180;2023-03-21T18:15:52;99630.63;;;6.95;64.97
54666;BME280;40566;50.006;36.180;2023-03-21T18:20:53;99646.88;;;6.99;65.18
54666;BME280;40566;50.006;36.180;2023-03-21T18:25:53;99639.41;;;6.82;65.21
54666;BME280;40566;50.006;36.180;2023-03-21T18:30:54;99635.22;;;6.74;65.26
54666;BME280;40566;50.006;36.180;2023-03-21T18:35:56;99648.13;;;6.71;65.04
54666;BME280;40566;50.006;36.180;2023-03-21T18:40:56;99640.47;;;6.68;65.08
54666;BME280;40566;50.006;36.180;2023-03-21T18:45:57;99644.75;;;6.66;64.95
54666;BME280;40566;50.006;36.180;2023-03-21T18:51:00;99642.19;;;6.66;64.94
54666;BME280;40566;50.006;36.180;2023-03-21T18:56:00;99643.03;;;6.68;64.57
54666;BME280;40566;50.006;36.180;2023-03-21T19:01:01;99643.06;;;6.65;64.75
54666;BME280;40566;50.006;36.180;2023-03-21T19:06:03;99646.41;;;6.70;64.68
54666;BME280;40566;50.006;36.180;2023-03-21T19:11:05;99644.78;;;6.63;64.70
54666;BME280;40566;50.006;36.180;2023-03-21T19:16:06;99647.47;;;6.55;64.90
54666;BME280;40566;50.006;36.180;2023-03-21T19:21:07;99642.47;;;6.45;65.04
54666;BME280;40566;50.006;36.180;2023-03-21T19:26:07;99646.84;;;6.38;65.08
54666;BME280;40566;50.006;36.180;2023-03-21T19:31:08;99650.28;;;6.35;64.90
54666;BME280;40566;50.006;36.180;2023-03-21T19:36:10;99646.06;;;6.30;65.03
54666;BME280;40566;50.006;36.180;2023-03-21T19:41:11;99649.59;;;6.24;64.88
54666;BME280;40566;50.006;36.180;2023-03-21T19:46:12;99653.09;;;6.14;65.11
54666;BME280;40566;50.006;36.180;2023-03-21T19:51:16;99652.34;;;6.06;65.45
54666;BME280;40566;50.006;36.180;2023-03-21T19:56:16;99653.25;;;6.02;65.44
54666;BME280;40566;50.006;36.180;2023-03-21T20:01:17;99645.63;;;5.91;65.19
54666;BME280;40566;50.006;36.180;2023-03-21T20:06:19;99644.00;;;5.82;65.54
54666;BME280;40566;50.006;36.180;2023-03-21T20:11:21;99644.97;;;5.72;65.57
54666;BME280;40566;50.006;36.180;2023-03-21T20:16:22;99642.47;;;5.63;65.47
54666;BME280;40566;50.006;36.180;2023-03-21T20:21:22;99646.84;;;5.54;65.61
54666;BME280;40566;50.006;36.180;2023-03-21T20:26:25;99644.38;;;5.45;65.58
54666;BME280;40566;50.006;36.180;2023-03-21T20:31:25;99647.81;;;5.41;65.61
54666;BME280;40566;50.006;36.180;2023-03-21T20:36:26;99644.44;;;5.38;65.83
54666;BME280;40566;50.006;36.180;2023-03-21T20:41:27;99641.88;;;5.33;65.73
54666;BME280;40566;50.006;36.180;2023-03-21T20:46:28;99639.38;;;5.27;65.67
54666;BME280;40566;50.006;36.180;2023-03-21T20:51:28;99634.34;;;5.18;66.23
54666;BME280;40566;50.006;36.180;2023-03-21T20:56:29;99645.44;;;5.15;66.47
54666;BME280;40566;50.006;36.180;2023-03-21T21:01:30;99651.47;;;5.11;66.63
54666;BME280;40566;50.006;36.180;2023-03-21T21:06:30;99644.59;;;5.11;66.43
54666;BME280;40566;50.006;36.180;2023-03-21T21:11:31;99648.88;;;5.12;66.48
54666;BME280;40566;50.006;36.180;2023-03-21T21:16:32;99654.00;;;5.15;66.47
54666;BME280;40566;50.006;36.180;2023-03-21T21:21:33;99657.47;;;5.10;66.56
54666;BME280;40566;50.006;36.180;2023-03-21T21:26:33;99659.16;;;5.09;66.66
54666;BME280;40566;50.006;36.180;2023-03-21T21:31:34;99663.44;;;5.09;66.71
54666;BME280;40566;50.006;36.180;2023-03-21T21:36:35;99653.22;;;5.03;66.78
54666;BME280;40566;50.006;36.180;2023-03-21T21:41:35;99659.22;;;5.00;66.71
54666;BME280;40566;50.006;36.180;2023-03-21T21:46:36;99648.97;;;4.99;66.87
54666;BME280;40566;50.006;36.180;2023-03-21T21:51:37;99661.81;;;4.97;66.89
54666;BME280;40566;50.006;36.180;2023-03-21T21:56:40;99662.69;;;4.93;67.05
54666;BME280;40566;50.006;36.180;2023-03-21T22:01:41;99662.69;;;4.93;67.08
54666;BME280;40566;50.006;36.180;2023-03-21T22:06:42;99667.84;;;4.88;66.98
54666;BME280;40566;50.006;36.180;2023-03-21T22:11:43;99670.41;;;4.85;67.00
54666;BME280;40566;50.006;36.180;2023-03-21T22:16:43;99676.41;;;4.81;67.05
54666;BME280;40566;50.006;36.180;2023-03-21T22:21:45;99673.91;;;4.75;66.99
54666;BME280;40566;50.006;36.180;2023-03-21T22:26:46;99682.44;;;4.75;66.97
54666;BME280;40566;50.006;36.180;2023-03-21T22:31:47;99682.47;;;4.69;66.95
54666;BME280;40566;50.006;36.180;2023-03-21T22:36:47;99686.78;;;4.60;67.28
54666;BME280;40566;50.006;36.180;2023-03-21T22:41:49;99682.53;;;4.60;67.07
54666;BME280;40566;50.006;36.180;2023-03-21T22:46:50;99683.38;;;4.57;67.12
54666;BME280;40566;50.006;36.180;2023-03-21T22:51:50;99683.38;;;4.59;66.96
54666;BME280;40566;50.006;36.180;2023-03-21T22:56:51;99683.38;;;4.61;67.19
54666;BME280;40566;50.006;36.180;2023-03-21T23:01:52;99681.69;;;4.55;66.99
54666;BME280;40566;50.006;36.180;2023-03-21T23:06:53;99674.00;;;4.56;67.03
54666;BME280;40566;50.006;36.180;2023-03-21T23:11:53;99674.00;;;4.52;67.28
54666;BME280;40566;50.006;36.180;2023-03-21T23:16:54;99670.63;;;4.48;67.27
54666;BME280;40566;50.006;36.180;2023-03-21T23:21:59;99662.94;;;4.42;67.43
54666;BME280;40566;50.006;36.180;2023-03-21T23:27:00;99662.13;;;4.39;67.58
54666;BME280;40566;50.006;36.180;2023-03-21T23:32:01;99672.38;;;4.39;67.66
54666;BME280;40566;50.006;36.180;2023-03-21T23:37:02;99657.84;;;4.36;67.46
54666;BME280;40566;50.006;36.180;2023-03-21T23:42:02;99665.56;;;4.34;67.54
54666;BME280;40566;50.006;36.180;2023-03-21T23:47:03;99664.72;;;4.31;67.48
54666;BME280;40566;50.006;36.180;2023-03-21T23:52:04;99668.97;;;4.32;67.37
54666;BME280;40566;50.006;36.180;2023-03-21T23:57:05;99669.84;;;4.31;67.46
